createdAt,value
2017-05-09T00:00:27.317Z,72.69
2017-05-09T00:01:27.920Z,72.69
2017-05-09T00:02:28.533Z,72.60
2017-05-09T00:03:29.139Z,72.60
2017-05-09T00:04:29.750Z,72.60
2017-05-09T00:05:30.355Z,72.41
2017-05-09T00:06:30.995Z,72.50
2017-05-09T00:07:31.608Z,72.41
2017-05-09T00:08:32.211Z,72.78
2017-05-09T00:09:32.824Z,72.60
2017-05-09T00:10:33.433Z,72.50
2017-05-09T00:11:34.088Z,72.50
2017-05-09T00:12:34.697Z,72.41
2017-05-09T00:13:35.303Z,72.50
2017-05-09T00:14:35.912Z,72.50
2017-05-09T00:15:36.526Z,72.60
2017-05-09T00:16:37.131Z,72.69
2017-05-09T00:17:37.743Z,72.69
2017-05-09T00:18:38.356Z,72.60
2017-05-09T00:19:38.956Z,72.60
2017-05-09T00:20:39.563Z,72.41
2017-05-09T00:21:40.169Z,72.50
2017-05-09T00:22:40.779Z,72.50
2017-05-09T00:23:41.394Z,72.41
2017-05-09T00:24:41.998Z,72.31
2017-05-09T00:25:42.611Z,72.12
2017-05-09T00:26:43.270Z,72.12
2017-05-09T00:27:43.871Z,72.31
2017-05-09T00:28:44.478Z,72.12
2017-05-09T00:29:45.085Z,72.22
2017-05-09T00:30:45.697Z,72.22
2017-05-09T00:31:46.351Z,72.31
2017-05-09T00:32:46.959Z,72.03
2017-05-09T00:33:47.568Z,72.22
2017-05-09T00:34:48.182Z,72.50
2017-05-09T00:35:48.784Z,72.31
2017-05-09T00:36:49.397Z,72.12
2017-05-09T00:37:50.007Z,72.12
2017-05-09T00:38:50.612Z,72.31
2017-05-09T00:39:51.230Z,72.31
2017-05-09T00:40:51.834Z,72.69
2017-05-09T00:41:52.480Z,72.50
2017-05-09T00:42:53.090Z,72.50
2017-05-09T00:43:53.695Z,72.50
2017-05-09T00:44:54.308Z,72.78
2017-05-09T00:45:54.919Z,72.41
2017-05-09T00:46:55.574Z,72.31
2017-05-09T00:47:56.189Z,72.97
2017-05-09T00:48:56.830Z,73.07
2017-05-09T00:49:57.444Z,72.88
2017-05-09T00:50:58.047Z,72.88
2017-05-09T00:51:58.661Z,72.69
2017-05-09T00:52:59.266Z,72.78
2017-05-09T00:53:59.873Z,72.69
2017-05-09T00:55:00.517Z,72.88
2017-05-09T00:56:01.121Z,72.78
2017-05-09T00:57:01.727Z,73.07
2017-05-09T00:58:02.334Z,73.16
2017-05-09T00:59:02.941Z,73.16
2017-05-09T01:00:03.548Z,72.78
2017-05-09T01:01:04.161Z,72.78
2017-05-09T01:02:04.816Z,73.26
2017-05-09T01:03:05.425Z,73.16
2017-05-09T01:04:06.033Z,72.97
2017-05-09T01:05:06.642Z,73.07
2017-05-09T01:06:07.253Z,72.97
2017-05-09T01:07:07.856Z,73.07
2017-05-09T01:08:08.463Z,73.16
2017-05-09T01:09:09.070Z,73.07
2017-05-09T01:10:09.679Z,73.16
2017-05-09T01:11:10.294Z,73.45
2017-05-09T01:12:10.900Z,73.64
2017-05-09T01:13:11.513Z,73.45
2017-05-09T01:14:12.124Z,73.64
2017-05-09T01:15:12.734Z,73.35
2017-05-09T01:16:13.342Z,73.45
2017-05-09T01:17:13.994Z,73.07
2017-05-09T01:18:14.604Z,73.45
2017-05-09T01:19:15.212Z,73.54
2017-05-09T01:20:15.824Z,73.35
2017-05-09T01:21:16.429Z,73.35
2017-05-09T01:22:17.036Z,73.45
2017-05-09T01:23:17.642Z,73.26
2017-05-09T01:24:18.250Z,73.54
2017-05-09T01:25:18.856Z,73.73
2017-05-09T01:26:19.463Z,73.64
2017-05-09T01:27:20.102Z,73.45
2017-05-09T01:28:20.710Z,73.35
2017-05-09T01:29:21.321Z,73.73
2017-05-09T01:30:21.926Z,73.83
2017-05-09T01:31:22.533Z,73.64
2017-05-09T01:32:23.142Z,73.54
2017-05-09T01:33:23.751Z,73.45
2017-05-09T01:34:24.364Z,73.54
2017-05-09T01:35:24.974Z,73.64
2017-05-09T01:36:25.584Z,74.21
2017-05-09T01:37:26.241Z,74.21
2017-05-09T01:38:26.879Z,74.21
2017-05-09T01:39:27.492Z,74.58
2017-05-09T01:40:28.104Z,74.49
2017-05-09T01:41:28.709Z,74.49
2017-05-09T01:42:29.319Z,74.30
2017-05-09T01:43:29.931Z,74.68
2017-05-09T01:44:30.535Z,74.68
2017-05-09T01:45:31.142Z,74.58
2017-05-09T01:46:31.749Z,74.11
2017-05-09T01:47:32.361Z,74.49
2017-05-09T01:48:32.972Z,74.49
2017-05-09T01:49:33.580Z,74.49
2017-05-09T01:50:34.221Z,74.87
2017-05-09T01:51:34.862Z,74.96
2017-05-09T01:52:35.468Z,74.87
2017-05-09T01:53:36.075Z,74.68
2017-05-09T01:54:36.682Z,74.68
2017-05-09T01:55:37.292Z,74.68
2017-05-09T01:56:37.932Z,74.87
2017-05-09T01:57:38.539Z,75.05
2017-05-09T01:58:39.149Z,74.21
2017-05-09T01:59:39.790Z,74.21
2017-05-09T02:00:40.399Z,74.30
2017-05-09T02:01:41.005Z,74.68
2017-05-09T02:02:41.667Z,74.55
2017-05-09T02:03:42.307Z,74.83
2017-05-09T02:04:42.914Z,74.74
2017-05-09T02:05:43.557Z,74.64
2017-05-09T02:06:44.164Z,75.21
2017-05-09T02:07:44.768Z,75.21
2017-05-09T02:08:45.376Z,75.21
2017-05-09T02:09:45.987Z,75.40
2017-05-09T02:10:46.590Z,75.49
2017-05-09T02:11:47.199Z,75.96
2017-05-09T02:12:47.813Z,75.78
2017-05-09T02:13:48.422Z,75.21
2017-05-09T02:14:49.025Z,75.31
2017-05-09T02:15:49.637Z,75.31
2017-05-09T02:16:50.244Z,75.78
2017-05-09T02:17:50.898Z,76.15
2017-05-09T02:18:51.504Z,76.25
2017-05-09T02:19:52.113Z,76.19
2017-05-09T02:20:52.721Z,76.10
2017-05-09T02:21:53.368Z,76.29
2017-05-09T02:22:53.974Z,76.38
2017-05-09T02:23:54.581Z,76.19
2017-05-09T02:24:55.189Z,75.91
2017-05-09T02:25:55.799Z,76.00
2017-05-09T02:26:56.404Z,76.29
2017-05-09T02:27:57.060Z,76.00
2017-05-09T02:28:57.667Z,76.29
2017-05-09T02:29:58.272Z,76.29
2017-05-09T02:30:58.881Z,76.38
2017-05-09T02:31:59.491Z,76.19
2017-05-09T02:33:00.097Z,76.19
2017-05-09T02:34:00.706Z,76.19
2017-05-09T02:35:01.344Z,76.38
2017-05-09T02:36:01.953Z,76.19
2017-05-09T02:37:02.594Z,76.19
2017-05-09T02:38:03.202Z,76.38
2017-05-09T02:39:03.811Z,76.19
2017-05-09T02:40:04.414Z,76.38
2017-05-09T02:41:05.026Z,76.38
2017-05-09T02:42:05.631Z,76.38
2017-05-09T02:43:06.238Z,75.72
2017-05-09T02:44:06.845Z,75.43
2017-05-09T02:45:07.453Z,74.96
2017-05-09T02:46:08.063Z,75.24
2017-05-09T02:47:08.669Z,75.91
2017-05-09T02:48:09.275Z,76.19
2017-05-09T02:49:09.890Z,76.10
2017-05-09T02:50:10.499Z,76.29
2017-05-09T02:51:11.108Z,76.38
2017-05-09T02:52:11.713Z,76.25
2017-05-09T02:53:12.318Z,76.34
2017-05-09T02:54:12.930Z,76.44
2017-05-09T02:55:13.538Z,76.34
2017-05-09T02:56:14.143Z,76.53
2017-05-09T02:57:14.753Z,77.01
2017-05-09T02:58:15.361Z,76.53
2017-05-09T02:59:15.968Z,76.53
2017-05-09T03:00:16.575Z,76.67
2017-05-09T03:01:17.217Z,76.57
2017-05-09T03:02:17.822Z,76.86
2017-05-09T03:03:18.479Z,76.57
2017-05-09T03:04:19.088Z,77.04
2017-05-09T03:05:19.693Z,76.29
2017-05-09T03:06:20.299Z,76.19
2017-05-09T03:07:20.906Z,76.44
2017-05-09T03:08:21.512Z,75.96
2017-05-09T03:09:22.120Z,76.44
2017-05-09T03:10:22.729Z,76.82
2017-05-09T03:11:23.337Z,76.82
2017-05-09T03:12:23.980Z,76.91
2017-05-09T03:13:24.593Z,77.23
2017-05-09T03:14:25.239Z,77.04
2017-05-09T03:15:25.842Z,77.04
2017-05-09T03:16:26.448Z,77.33
2017-05-09T03:17:27.088Z,76.95
2017-05-09T03:18:27.780Z,77.23
2017-05-09T03:19:28.385Z,77.14
2017-05-09T03:20:28.994Z,76.86
2017-05-09T03:21:29.638Z,76.86
2017-05-09T03:22:30.242Z,76.67
2017-05-09T03:23:30.906Z,76.57
2017-05-09T03:24:31.511Z,77.04
2017-05-09T03:25:32.123Z,76.19
2017-05-09T03:26:32.728Z,76.38
2017-05-09T03:27:33.339Z,76.38
2017-05-09T03:28:33.998Z,76.15
2017-05-09T03:29:34.603Z,76.25
2017-05-09T03:30:35.209Z,76.82
2017-05-09T03:31:35.817Z,76.76
2017-05-09T03:32:36.434Z,76.86
2017-05-09T03:33:37.032Z,77.04
2017-05-09T03:34:37.640Z,77.04
2017-05-09T03:35:38.279Z,76.19
2017-05-09T03:36:38.887Z,76.38
2017-05-09T03:37:39.495Z,76.38
2017-05-09T03:38:40.153Z,76.38
2017-05-09T03:39:40.761Z,76.25
2017-05-09T03:40:41.369Z,76.25
2017-05-09T03:41:42.008Z,76.44
2017-05-09T03:42:42.618Z,77.10
2017-05-09T03:43:43.273Z,76.82
2017-05-09T03:44:43.879Z,76.82
2017-05-09T03:45:44.517Z,76.91
2017-05-09T03:46:45.125Z,76.91
2017-05-09T03:47:45.731Z,76.63
2017-05-09T03:48:46.342Z,77.01
2017-05-09T03:49:46.947Z,77.95
2017-05-09T03:50:47.559Z,77.58
2017-05-09T03:51:48.197Z,77.76
2017-05-09T03:52:48.805Z,77.29
2017-05-09T03:53:49.419Z,77.20
2017-05-09T03:54:50.026Z,77.01
2017-05-09T03:55:50.627Z,77.95
2017-05-09T03:56:51.235Z,77.48
2017-05-09T03:57:51.842Z,77.86
2017-05-09T03:58:52.454Z,77.67
2017-05-09T03:59:53.059Z,77.76
2017-05-09T04:00:53.702Z,77.76
2017-05-09T04:01:54.305Z,77.86
2017-05-09T04:02:54.911Z,77.58
2017-05-09T04:03:55.567Z,77.67
2017-05-09T04:04:56.176Z,77.76
2017-05-09T04:05:56.785Z,77.76
2017-05-09T04:06:57.392Z,78.33
2017-05-09T04:07:58.003Z,77.67
2017-05-09T04:08:58.691Z,77.86
2017-05-09T04:09:59.298Z,77.76
2017-05-09T04:10:59.904Z,77.86
2017-05-09T04:12:00.518Z,77.01
2017-05-09T04:13:01.122Z,77.86
2017-05-09T04:14:01.781Z,77.67
2017-05-09T04:15:02.393Z,78.14
2017-05-09T04:16:03.034Z,77.67
2017-05-09T04:17:03.647Z,78.05
2017-05-09T04:18:04.250Z,78.14
2017-05-09T04:19:04.859Z,77.76
2017-05-09T04:20:05.469Z,78.33
2017-05-09T04:21:06.074Z,77.95
2017-05-09T04:22:06.686Z,77.58
2017-05-09T04:23:07.325Z,77.86
2017-05-09T04:24:07.985Z,77.95
2017-05-09T04:25:08.591Z,77.86
2017-05-09T04:26:09.203Z,78.05
2017-05-09T04:27:09.807Z,78.14
2017-05-09T04:28:10.415Z,78.33
2017-05-09T04:29:11.070Z,78.14
2017-05-09T04:30:11.677Z,78.05
2017-05-09T04:31:12.291Z,78.23
2017-05-09T04:32:12.903Z,78.52
2017-05-09T04:33:13.507Z,78.52
2017-05-09T04:34:14.165Z,78.42
2017-05-09T04:35:14.773Z,78.14
2017-05-09T04:36:15.378Z,77.95
2017-05-09T04:37:15.987Z,78.05
2017-05-09T04:38:16.595Z,78.23
2017-05-09T04:39:17.256Z,78.23
2017-05-09T04:40:17.864Z,78.33
2017-05-09T04:41:18.471Z,78.33
2017-05-09T04:42:19.078Z,78.52
2017-05-09T04:43:19.691Z,78.33
2017-05-09T04:44:20.343Z,77.67
2017-05-09T04:45:20.953Z,78.05
2017-05-09T04:46:21.561Z,77.95
2017-05-09T04:47:22.174Z,78.23
2017-05-09T04:48:22.779Z,77.67
2017-05-09T04:49:23.388Z,78.23
2017-05-09T04:50:23.995Z,77.89
2017-05-09T04:51:24.602Z,77.70
2017-05-09T04:52:25.209Z,78.56
2017-05-09T04:53:25.823Z,78.56
2017-05-09T04:54:26.479Z,78.37
2017-05-09T04:55:27.088Z,77.89
2017-05-09T04:56:27.694Z,77.70
2017-05-09T04:57:28.303Z,78.18
2017-05-09T04:58:28.911Z,77.89
2017-05-09T04:59:29.574Z,77.86
2017-05-09T05:00:30.182Z,77.67
2017-05-09T05:01:30.789Z,77.76
2017-05-09T05:02:31.397Z,77.67
2017-05-09T05:03:32.005Z,78.14
2017-05-09T05:04:32.668Z,78.33
2017-05-09T05:05:33.281Z,78.61
2017-05-09T05:06:33.887Z,78.33
2017-05-09T05:07:34.499Z,78.33
2017-05-09T05:08:35.105Z,78.33
2017-05-09T05:09:35.714Z,78.33
2017-05-09T05:10:36.324Z,78.42
2017-05-09T05:11:36.935Z,78.52
2017-05-09T05:12:37.544Z,78.61
2017-05-09T05:13:38.180Z,78.61
2017-05-09T05:14:38.839Z,78.42
2017-05-09T05:15:39.448Z,78.42
2017-05-09T05:16:40.060Z,78.52
2017-05-09T05:17:40.665Z,78.52
2017-05-09T05:18:41.271Z,78.42
2017-05-09T05:19:41.928Z,78.33
2017-05-09T05:20:42.543Z,78.14
2017-05-09T05:21:43.148Z,78.23
2017-05-09T05:22:43.762Z,78.33
2017-05-09T05:23:44.368Z,78.61
2017-05-09T05:24:45.025Z,78.71
2017-05-09T05:25:45.633Z,78.61
2017-05-09T05:26:46.241Z,78.71
2017-05-09T05:27:46.852Z,77.67
2017-05-09T05:28:47.460Z,77.76
2017-05-09T05:29:48.066Z,77.86
2017-05-09T05:30:48.673Z,77.86
2017-05-09T05:31:49.281Z,78.52
2017-05-09T05:32:49.895Z,78.05
2017-05-09T05:33:50.499Z,78.14
2017-05-09T05:34:51.155Z,78.33
2017-05-09T05:35:51.763Z,78.14
2017-05-09T05:36:52.372Z,78.14
2017-05-09T05:37:52.985Z,78.42
2017-05-09T05:38:53.596Z,77.67
2017-05-09T05:39:54.250Z,77.58
2017-05-09T05:40:54.860Z,78.33
2017-05-09T05:41:55.474Z,78.33
2017-05-09T05:42:56.079Z,78.33
2017-05-09T05:43:56.686Z,78.33
2017-05-09T05:44:57.344Z,78.14
2017-05-09T05:45:57.949Z,78.33
2017-05-09T05:46:58.562Z,78.80
2017-05-09T05:47:59.168Z,78.42
2017-05-09T05:48:59.778Z,78.71
2017-05-09T05:50:00.437Z,78.18
2017-05-09T05:51:01.046Z,77.67
2017-05-09T05:52:01.655Z,77.76
2017-05-09T05:53:02.296Z,77.61
2017-05-09T05:54:02.906Z,77.67
2017-05-09T05:55:03.514Z,77.86
2017-05-09T05:56:04.128Z,77.67
2017-05-09T05:57:04.736Z,77.67
2017-05-09T05:58:05.380Z,77.86
2017-05-09T05:59:05.991Z,77.86
2017-05-09T06:00:06.684Z,77.67
2017-05-09T06:01:07.293Z,77.76
2017-05-09T06:02:07.907Z,77.76
2017-05-09T06:03:08.522Z,77.67
2017-05-09T06:04:09.134Z,77.76
2017-05-09T06:05:09.792Z,77.39
2017-05-09T06:06:10.407Z,77.86
2017-05-09T06:07:11.014Z,78.14
2017-05-09T06:08:11.629Z,77.48
2017-05-09T06:09:12.239Z,77.67
2017-05-09T06:10:12.900Z,78.33
2017-05-09T06:11:13.503Z,77.95
2017-05-09T06:12:14.119Z,77.58
2017-05-09T06:13:14.724Z,77.67
2017-05-09T06:14:15.332Z,77.76
2017-05-09T06:15:15.994Z,77.67
2017-05-09T06:16:16.604Z,77.67
2017-05-09T06:17:17.207Z,77.86
2017-05-09T06:18:17.816Z,77.10
2017-05-09T06:19:18.424Z,77.01
2017-05-09T06:20:19.091Z,77.01
2017-05-09T06:21:19.697Z,77.01
2017-05-09T06:22:20.312Z,77.20
2017-05-09T06:23:20.959Z,77.76
2017-05-09T06:24:21.569Z,77.29
2017-05-09T06:25:22.230Z,77.20
2017-05-09T06:26:22.846Z,77.29
2017-05-09T06:27:23.488Z,77.76
2017-05-09T06:28:24.097Z,78.05
2017-05-09T06:29:24.706Z,77.10
2017-05-09T06:30:25.367Z,77.48
2017-05-09T06:31:25.976Z,77.39
2017-05-09T06:32:26.586Z,77.48
2017-05-09T06:33:27.200Z,77.29
2017-05-09T06:34:27.807Z,77.20
2017-05-09T06:35:28.468Z,77.48
2017-05-09T06:36:29.083Z,77.01
2017-05-09T06:37:29.723Z,77.01
2017-05-09T06:38:30.370Z,77.01
2017-05-09T06:39:30.984Z,77.67
2017-05-09T06:40:31.640Z,77.48
2017-05-09T06:41:32.283Z,77.39
2017-05-09T06:42:32.893Z,76.91
2017-05-09T06:43:33.504Z,76.72
2017-05-09T06:44:34.118Z,76.72
2017-05-09T06:45:34.725Z,77.01
2017-05-09T06:46:35.368Z,77.01
2017-05-09T06:47:35.976Z,77.39
2017-05-09T06:48:36.586Z,77.20
2017-05-09T06:49:37.195Z,77.01
2017-05-09T06:50:37.857Z,76.53
2017-05-09T06:51:38.465Z,76.53
2017-05-09T06:52:39.081Z,76.82
2017-05-09T06:53:39.693Z,76.86
2017-05-09T06:54:40.301Z,76.86
2017-05-09T06:55:40.916Z,77.61
2017-05-09T06:56:41.519Z,77.33
2017-05-09T06:57:42.133Z,77.04
2017-05-09T06:58:42.739Z,76.57
2017-05-09T06:59:43.349Z,76.67
2017-05-09T07:00:44.007Z,77.42
2017-05-09T07:01:44.618Z,76.86
2017-05-09T07:02:45.226Z,76.95
2017-05-09T07:03:45.836Z,76.67
2017-05-09T07:04:46.446Z,76.29
2017-05-09T07:05:47.108Z,76.48
2017-05-09T07:06:47.715Z,76.38
2017-05-09T07:07:48.325Z,76.38
2017-05-09T07:08:48.933Z,76.00
2017-05-09T07:09:49.542Z,76.57
2017-05-09T07:10:50.202Z,77.04
2017-05-09T07:11:50.810Z,77.23
2017-05-09T07:12:51.422Z,77.23
2017-05-09T07:13:52.032Z,77.80
2017-05-09T07:14:52.642Z,77.14
2017-05-09T07:15:53.308Z,77.23
2017-05-09T07:16:53.916Z,76.86
2017-05-09T07:17:54.532Z,77.04
2017-05-09T07:18:55.139Z,76.67
2017-05-09T07:19:55.749Z,77.23
2017-05-09T07:20:56.408Z,77.04
2017-05-09T07:21:57.018Z,77.04
2017-05-09T07:22:57.634Z,77.70
2017-05-09T07:23:58.241Z,77.46
2017-05-09T07:24:58.856Z,76.89
2017-05-09T07:25:59.467Z,76.99
2017-05-09T07:27:00.072Z,76.32
2017-05-09T07:28:00.684Z,76.99
2017-05-09T07:29:01.294Z,76.89
2017-05-09T07:30:01.906Z,76.89
2017-05-09T07:31:02.565Z,77.37
2017-05-09T07:32:03.174Z,76.99
2017-05-09T07:33:03.785Z,76.99
2017-05-09T07:34:04.396Z,76.61
2017-05-09T07:35:05.012Z,76.32
2017-05-09T07:36:05.668Z,76.89
2017-05-09T07:37:06.279Z,76.89
2017-05-09T07:38:06.890Z,77.18
2017-05-09T07:39:07.502Z,76.61
2017-05-09T07:40:08.144Z,76.23
2017-05-09T07:41:08.803Z,76.23
2017-05-09T07:42:09.414Z,75.95
2017-05-09T07:43:10.022Z,76.23
2017-05-09T07:44:10.633Z,76.70
2017-05-09T07:45:11.245Z,76.51
2017-05-09T07:46:11.854Z,76.42
2017-05-09T07:47:12.467Z,76.23
2017-05-09T07:48:13.075Z,76.42
2017-05-09T07:49:13.686Z,76.32
2017-05-09T07:50:14.298Z,76.23
2017-05-09T07:51:14.955Z,76.42
2017-05-09T07:52:15.566Z,76.23
2017-05-09T07:53:16.182Z,76.42
2017-05-09T07:54:16.790Z,76.70
2017-05-09T07:55:17.406Z,76.84
2017-05-09T07:56:18.018Z,76.36
2017-05-09T07:57:18.625Z,76.36
2017-05-09T07:58:19.237Z,75.70
2017-05-09T07:59:19.847Z,75.98
2017-05-09T08:00:20.457Z,75.13
2017-05-09T08:01:21.068Z,75.42
2017-05-09T08:02:21.685Z,75.51
2017-05-09T08:03:22.297Z,74.85
2017-05-09T08:04:22.905Z,74.75
2017-05-09T08:05:23.522Z,74.95
2017-05-09T08:06:24.131Z,75.51
2017-05-09T08:07:24.743Z,76.27
2017-05-09T08:08:25.353Z,76.46
2017-05-09T08:09:25.970Z,76.03
2017-05-09T08:10:26.577Z,75.04
2017-05-09T08:11:27.243Z,74.98
2017-05-09T08:12:27.857Z,75.07
2017-05-09T08:13:28.467Z,74.75
2017-05-09T08:14:29.084Z,74.75
2017-05-09T08:15:29.690Z,74.37
2017-05-09T08:16:30.384Z,75.13
2017-05-09T08:17:30.996Z,74.75
2017-05-09T08:18:31.605Z,73.90
2017-05-09T08:19:32.251Z,74.85
2017-05-09T08:20:32.866Z,74.75
2017-05-09T08:21:33.529Z,74.88
2017-05-09T08:22:34.144Z,74.98
2017-05-09T08:23:34.752Z,74.60
2017-05-09T08:24:35.363Z,74.69
2017-05-09T08:25:36.006Z,74.88
2017-05-09T08:26:36.673Z,74.60
2017-05-09T08:27:37.281Z,74.88
2017-05-09T08:28:37.898Z,75.07
2017-05-09T08:29:38.506Z,76.03
2017-05-09T08:30:39.115Z,75.59
2017-05-09T08:31:39.778Z,75.02
2017-05-09T08:32:40.388Z,74.45
2017-05-09T08:33:41.000Z,73.69
2017-05-09T08:34:41.612Z,74.64
2017-05-09T08:35:42.222Z,74.64
2017-05-09T08:36:42.885Z,74.07
2017-05-09T08:37:43.526Z,74.35
2017-05-09T08:38:44.142Z,74.83
2017-05-09T08:39:44.747Z,74.68
2017-05-09T08:40:45.360Z,73.44
2017-05-09T08:41:45.972Z,73.16
2017-05-09T08:42:46.588Z,73.22
2017-05-09T08:43:47.197Z,73.12
2017-05-09T08:44:47.809Z,72.08
2017-05-09T08:45:48.418Z,72.17
2017-05-09T08:46:49.029Z,72.93
2017-05-09T08:47:49.643Z,72.84
2017-05-09T08:48:50.260Z,72.84
2017-05-09T08:49:50.868Z,73.03
2017-05-09T08:50:51.480Z,72.27
2017-05-09T08:51:52.141Z,73.03
2017-05-09T08:52:52.754Z,71.98
2017-05-09T08:53:53.367Z,71.98
2017-05-09T08:54:53.985Z,71.80
2017-05-09T08:55:54.594Z,71.89
2017-05-09T08:56:55.255Z,72.08
2017-05-09T08:57:55.868Z,72.27
2017-05-09T08:58:56.485Z,72.36
2017-05-09T08:59:57.099Z,73.03
2017-05-09T09:00:57.707Z,72.84
2017-05-09T09:01:58.369Z,73.03
2017-05-09T09:02:58.987Z,73.12
2017-05-09T09:03:59.598Z,72.45
2017-05-09T09:05:00.209Z,72.17
2017-05-09T09:06:00.821Z,71.98
2017-05-09T09:07:01.431Z,71.89
2017-05-09T09:08:02.051Z,71.80
2017-05-09T09:09:02.666Z,72.55
2017-05-09T09:10:03.276Z,72.55
2017-05-09T09:11:03.888Z,72.84
2017-05-09T09:12:04.508Z,73.35
2017-05-09T09:13:05.113Z,73.07
2017-05-09T09:14:05.727Z,72.68
2017-05-09T09:15:06.337Z,72.68
2017-05-09T09:16:06.950Z,72.59
2017-05-09T09:17:07.614Z,72.49
2017-05-09T09:18:08.226Z,71.73
2017-05-09T09:19:08.843Z,70.69
2017-05-09T09:20:09.454Z,70.98
2017-05-09T09:21:10.066Z,71.07
2017-05-09T09:22:10.686Z,71.73
2017-05-09T09:23:11.289Z,72.59
2017-05-09T09:24:11.903Z,72.40
2017-05-09T09:25:12.517Z,72.59
2017-05-09T09:26:13.128Z,72.97
2017-05-09T09:27:13.740Z,72.63
2017-05-09T09:28:14.352Z,71.77
2017-05-09T09:29:14.971Z,71.01
2017-05-09T09:30:15.577Z,69.96
2017-05-09T09:31:16.223Z,69.78
2017-05-09T09:32:16.887Z,69.87
2017-05-09T09:33:17.499Z,69.46
2017-05-09T09:34:18.112Z,70.31
2017-05-09T09:35:18.732Z,71.30
2017-05-09T09:36:19.341Z,72.25
2017-05-09T09:37:20.005Z,70.06
2017-05-09T09:38:20.617Z,69.87
2017-05-09T09:39:21.231Z,69.68
2017-05-09T09:40:21.843Z,68.26
2017-05-09T09:41:22.455Z,68.26
2017-05-09T09:42:23.118Z,68.54
2017-05-09T09:43:23.731Z,68.92
2017-05-09T09:44:24.345Z,69.30
2017-05-09T09:45:24.996Z,69.68
2017-05-09T09:46:25.610Z,68.92
2017-05-09T09:47:26.271Z,69.49
2017-05-09T09:48:26.884Z,69.40
2017-05-09T09:49:27.496Z,69.59
2017-05-09T09:50:28.109Z,70.06
2017-05-09T09:51:28.724Z,70.35
2017-05-09T09:52:29.368Z,69.59
2017-05-09T09:53:29.980Z,70.06
2017-05-09T09:54:30.593Z,69.40
2017-05-09T09:55:31.205Z,69.30
2017-05-09T09:56:31.826Z,69.62
2017-05-09T09:57:32.486Z,70.38
2017-05-09T09:58:33.137Z,70.00
2017-05-09T09:59:33.710Z,69.81
2017-05-09T10:00:34.323Z,69.81
2017-05-09T10:01:34.939Z,69.34
2017-05-09T10:02:35.607Z,68.77
2017-05-09T10:03:36.252Z,69.37
2017-05-09T10:04:36.866Z,68.71
2017-05-09T10:05:37.479Z,68.80
2017-05-09T10:06:38.097Z,68.42
2017-05-09T10:07:38.761Z,68.80
2017-05-09T10:08:39.373Z,68.42
2017-05-09T10:09:39.993Z,67.76
2017-05-09T10:10:40.609Z,67.47
2017-05-09T10:11:41.223Z,67.09
2017-05-09T10:12:41.869Z,66.90
2017-05-09T10:13:42.486Z,67.47
2017-05-09T10:14:43.101Z,67.47
2017-05-09T10:15:43.715Z,66.80
2017-05-09T10:16:44.327Z,67.47
2017-05-09T10:17:44.996Z,67.85
2017-05-09T10:18:45.645Z,68.23
2017-05-09T10:19:46.259Z,67.19
2017-05-09T10:20:46.873Z,66.80
2017-05-09T10:21:47.487Z,66.94
2017-05-09T10:22:48.132Z,67.79
2017-05-09T10:23:48.753Z,67.41
2017-05-09T10:24:49.362Z,66.55
2017-05-09T10:25:49.982Z,64.56
2017-05-09T10:26:50.594Z,64.56
2017-05-09T10:27:51.255Z,65.60
2017-05-09T10:28:51.873Z,66.08
2017-05-09T10:29:52.491Z,66.46
2017-05-09T10:30:53.103Z,66.17
2017-05-09T10:31:53.718Z,66.27
2017-05-09T10:32:54.332Z,65.22
2017-05-09T10:33:54.952Z,65.03
2017-05-09T10:34:55.562Z,64.46
2017-05-09T10:35:56.179Z,64.46
2017-05-09T10:36:56.793Z,64.94
2017-05-09T10:37:57.410Z,63.60
2017-05-09T10:38:58.023Z,63.70
2017-05-09T10:39:58.636Z,64.65
2017-05-09T10:40:59.251Z,63.99
2017-05-09T10:41:59.870Z,64.27
2017-05-09T10:43:00.527Z,64.56
2017-05-09T10:44:01.142Z,64.75
2017-05-09T10:45:01.753Z,64.08
2017-05-09T10:46:02.374Z,64.37
2017-05-09T10:47:02.992Z,64.65
2017-05-09T10:48:03.603Z,64.37
2017-05-09T10:49:04.220Z,63.70
2017-05-09T10:50:04.836Z,64.75
2017-05-09T10:51:05.452Z,64.87
2017-05-09T10:52:06.072Z,65.25
2017-05-09T10:53:06.735Z,64.87
2017-05-09T10:54:07.351Z,65.35
2017-05-09T10:55:07.971Z,65.25
2017-05-09T10:56:08.583Z,64.43
2017-05-09T10:57:09.199Z,64.72
2017-05-09T10:58:09.818Z,65.29
2017-05-09T10:59:10.431Z,65.19
2017-05-09T11:00:11.052Z,64.72
2017-05-09T11:01:11.667Z,64.56
2017-05-09T11:02:12.283Z,63.80
2017-05-09T11:03:12.900Z,63.23
2017-05-09T11:04:13.520Z,62.65
2017-05-09T11:05:14.135Z,63.29
2017-05-09T11:06:14.755Z,62.81
2017-05-09T11:07:15.371Z,63.89
2017-05-09T11:08:16.024Z,63.80
2017-05-09T11:09:16.626Z,62.75
2017-05-09T11:10:17.276Z,61.99
2017-05-09T11:11:17.876Z,61.61
2017-05-09T11:12:18.528Z,62.27
2017-05-09T11:13:19.246Z,61.70
2017-05-09T11:14:19.912Z,61.22
2017-05-09T11:15:20.579Z,60.24
2017-05-09T11:16:21.151Z,60.05
2017-05-09T11:17:21.767Z,60.34
2017-05-09T11:18:22.510Z,60.44
2017-05-09T11:19:23.145Z,60.91
2017-05-09T11:20:23.763Z,59.58
2017-05-09T11:21:24.385Z,59.64
2017-05-09T11:22:25.005Z,60.60
2017-05-09T11:23:25.618Z,61.77
2017-05-09T11:24:26.322Z,61.86
2017-05-09T11:25:27.031Z,61.48
2017-05-09T11:26:27.673Z,61.42
2017-05-09T11:27:28.263Z,61.80
2017-05-09T11:28:28.928Z,61.61
2017-05-09T11:29:29.548Z,60.66
2017-05-09T11:30:30.165Z,61.07
2017-05-09T11:31:30.814Z,60.49
2017-05-09T11:32:31.430Z,60.40
2017-05-09T11:33:32.129Z,60.30
2017-05-09T11:34:32.746Z,58.11
2017-05-09T11:35:33.364Z,57.54
2017-05-09T11:36:33.986Z,58.40
2017-05-09T11:37:34.604Z,58.40
2017-05-09T11:38:35.272Z,58.78
2017-05-09T11:39:35.892Z,58.69
2017-05-09T11:40:36.509Z,58.72
2017-05-09T11:41:37.128Z,58.33
2017-05-09T11:42:37.745Z,57.86
2017-05-09T11:43:38.413Z,57.76
2017-05-09T11:44:39.030Z,56.90
2017-05-09T11:45:39.648Z,56.33
2017-05-09T11:46:40.327Z,54.52
2017-05-09T11:47:40.990Z,54.04
2017-05-09T11:48:41.679Z,51.82
2017-05-09T11:49:42.298Z,52.20
2017-05-09T11:50:42.951Z,52.87
2017-05-09T11:51:43.567Z,53.64
2017-05-09T11:52:44.184Z,53.83
2017-05-09T11:53:44.856Z,53.28
2017-05-09T11:54:45.472Z,50.49
2017-05-09T11:55:46.090Z,50.30
2017-05-09T11:56:46.707Z,48.68
2017-05-09T11:57:47.328Z,49.54
2017-05-09T11:58:48.027Z,50.78
2017-05-09T11:59:48.745Z,51.82
2017-05-09T12:00:49.449Z,50.61
2017-05-09T12:01:50.153Z,48.49
2017-05-09T12:02:51.068Z,48.68
2017-05-09T12:03:51.760Z,50.01
2017-05-09T12:04:52.416Z,49.85
2017-05-09T12:05:53.037Z,49.47
2017-05-09T12:06:53.658Z,49.56
2017-05-09T12:07:54.276Z,49.08
2017-05-09T12:08:54.999Z,49.08
2017-05-09T12:09:55.595Z,48.71
2017-05-09T12:10:56.210Z,48.61
2017-05-09T12:11:56.865Z,47.56
2017-05-09T12:12:57.482Z,46.61
2017-05-09T12:13:58.229Z,47.28
2017-05-09T12:14:59.070Z,48.52
2017-05-09T12:15:59.749Z,48.32
2017-05-09T12:17:00.342Z,47.66
2017-05-09T12:18:01.041Z,47.56
2017-05-09T12:19:01.960Z,45.65
2017-05-09T12:20:02.579Z,42.80
2017-05-09T12:21:03.288Z,44.11
2017-05-09T12:22:03.860Z,44.96
2017-05-09T12:23:04.478Z,45.56
2017-05-09T12:24:05.212Z,45.94
2017-05-09T12:25:05.800Z,45.84
2017-05-09T12:26:06.423Z,45.28
2017-05-09T12:27:07.036Z,44.99
2017-05-09T12:28:07.652Z,45.94
2017-05-09T12:29:08.323Z,45.87
2017-05-09T12:30:08.940Z,45.97
2017-05-09T12:31:09.626Z,45.01
2017-05-09T12:32:10.209Z,44.53
2017-05-09T12:33:10.828Z,42.24
2017-05-09T12:34:11.454Z,43.68
2017-05-09T12:35:12.068Z,43.39
2017-05-09T12:36:12.717Z,41.86
2017-05-09T12:37:13.410Z,41.77
2017-05-09T12:38:14.053Z,42.91
2017-05-09T12:39:14.670Z,43.20
2017-05-09T12:40:15.291Z,42.24
2017-05-09T12:41:15.909Z,42.24
2017-05-09T12:42:16.526Z,42.72
2017-05-09T12:43:17.146Z,42.82
2017-05-09T12:44:18.017Z,42.34
2017-05-09T12:45:18.635Z,42.17
2017-05-09T12:46:19.259Z,42.65
2017-05-09T12:47:19.875Z,42.93
2017-05-09T12:48:20.494Z,41.98
2017-05-09T12:49:21.422Z,40.45
2017-05-09T12:50:22.071Z,39.98
2017-05-09T12:51:22.690Z,38.62
2017-05-09T12:52:23.308Z,39.78
2017-05-09T12:53:23.927Z,40.45
2017-05-09T12:54:24.596Z,40.74
2017-05-09T12:55:25.217Z,40.55
2017-05-09T12:56:25.867Z,41.12
2017-05-09T12:57:26.486Z,39.31
2017-05-09T12:58:27.107Z,39.78
2017-05-09T12:59:28.025Z,39.78
2017-05-09T13:00:28.642Z,39.40